Time;durP1;ratioP1;P1;durP2;ratioP2;P2;SDS_P1;SDS_P2;PMS_P1;PMS_P2;Temp;Humidity;BMP_temperature;BMP_pressure;BME280_temperature;BME280_humidity;BME280_pressure;Samples;Min_cycle;Max_cycle;Signal;HPM_P1;HPM_P2
2023/06/05 00:00:14;;;;;;;;;;;;;;;16.80;57.05;101190.03;5054832;28;1698;-75
2023/06/05 00:02:41;;;;;;;;;;;;;;;16.80;57.10;101186.50;5068331;28;2041;-73
2023/06/05 00:05:18;;;;;;;;;;;;;;;16.78;57.08;101184.00;5069845;28;1505;-74
2023/06/05 00:07:44;;;;;;;;;;;;;;;16.78;57.02;101183.19;5074703;28;1930;-74
2023/06/05 00:10:13;;;;;;;;;;;;;;;16.77;57.00;101184.28;5076052;28;1972;-74
2023/06/05 00:12:46;;;;;;;;;;;;;;;16.75;57.00;101187.19;5068118;28;1653;-74
2023/06/05 00:15:35;;;;;;;;;;;;;;;16.76;56.96;101179.88;5066958;28;1601;-75
2023/06/05 00:18:02;;;;;;;;;;;;;;;16.74;56.97;101179.28;5055095;28;1878;-73
2023/06/05 00:20:29;;;;;;;;;;;;;;;16.73;57.08;101174.91;5066488;28;2290;-73
2023/06/05 00:22:55;;;;;;;;;;;;;;;16.73;56.99;101183.06;5071733;28;1470;-73
2023/06/05 00:25:22;;;;;;;;;;;;;;;16.72;57.02;101178.69;5069655;28;1740;-73
2023/06/05 00:27:49;;;;;;;;;;;;;;;16.71;56.95;101182.50;5071013;28;1902;-75
2023/06/05 00:30:25;;;;;;;;;;;;;;;16.70;56.90;101183.56;5066600;28;1699;-76
2023/06/05 00:32:52;;;;;;;;;;;;;;;16.68;57.05;101183.81;5072346;28;1515;-76
2023/06/05 00:35:19;;;;;;;;;;;;;;;16.67;57.02;101176.69;5066097;28;1494;-73
2023/06/05 00:37:46;;;;;;;;;;;;;;;16.68;57.01;101183.00;5070408;28;1532;-73
2023/06/05 00:40:15;;;;;;;;;;;;;;;16.67;56.95;101184.03;5066801;28;1886;-75
2023/06/05 00:42:41;;;;;;;;;;;;;;;16.66;56.98;101175.06;5069575;28;2120;-73
2023/06/05 00:45:08;;;;;;;;;;;;;;;16.65;56.66;101180.72;5070191;28;1742;-73
2023/06/05 00:47:37;;;;;;;;;;;;;;;16.64;56.84;101185.34;5074527;28;1917;-74
2023/06/05 00:50:04;;;;;;;;;;;;;;;16.63;56.80;101182.91;5067615;28;2055;-74
2023/06/05 00:52:30;;;;;;;;;;;;;;;16.63;56.88;101185.63;5070210;28;1472;-74
2023/06/05 00:54:57;;;;;;;;;;;;;;;16.62;56.84;101178.50;5067601;28;1451;-74
2023/06/05 00:57:24;;;;;;;;;;;;;;;16.60;56.80;101177.94;5068606;28;1867;-74
2023/06/05 00:59:53;;;;;;;;;;;;;;;16.59;56.88;101185.28;5068017;28;1750;-74
2023/06/05 01:02:19;;;;;;;;;;;;;;;16.59;56.84;101179.84;5046662;28;1621;-74
2023/06/05 01:04:46;;;;;;;;;;;;;;;16.58;56.79;101178.19;5068814;28;1532;-74
2023/06/05 01:07:14;;;;;;;;;;;;;;;16.56;56.72;101183.88;5070788;28;2009;-74
2023/06/05 01:09:40;;;;;;;;;;;;;;;16.55;56.76;101176.75;5067075;28;1643;-74
2023/06/05 01:12:07;;;;;;;;;;;;;;;16.54;56.77;101175.13;5063731;28;2044;-74
2023/06/05 01:14:33;;;;;;;;;;;;;;;16.54;56.75;101182.47;5066634;28;1699;-74
2023/06/05 01:17:00;;;;;;;;;;;;;;;16.52;56.75;101174.53;5067479;28;1459;-75
2023/06/05 01:19:28;;;;;;;;;;;;;;;16.52;56.64;101171.00;5071118;28;1772;-74
2023/06/05 01:21:55;;;;;;;;;;;;;;;16.51;56.77;101181.06;5069209;28;1917;-74
2023/06/05 01:24:22;;;;;;;;;;;;;;;16.49;56.64;101176.94;5071953;28;1754;-74
2023/06/05 01:26:52;;;;;;;;;;;;;;;16.49;56.58;101183.19;5066320;28;1481;-74
2023/06/05 01:29:18;;;;;;;;;;;;;;;16.48;56.72;101178.00;5066778;28;2132;-74
2023/06/05 01:31:45;;;;;;;;;;;;;;;16.46;56.68;101172.78;5070078;28;1495;-74
2023/06/05 01:34:12;;;;;;;;;;;;;;;16.45;56.67;101176.59;5071732;28;1503;-74
2023/06/05 01:36:39;;;;;;;;;;;;;;;16.44;56.59;101165.94;5069837;28;1451;-74
2023/06/05 01:39:06;;;;;;;;;;;;;;;16.44;56.67;101171.38;5066525;28;2001;-73
2023/06/05 01:41:32;;;;;;;;;;;;;;;16.43;56.54;101172.47;5067893;28;1498;-74
2023/06/05 01:43:59;;;;;;;;;;;;;;;16.42;56.53;101168.94;5068344;28;2052;-75
2023/06/05 01:46:25;;;;;;;;;;;;;;;16.41;56.42;101172.69;5068906;28;1442;-75
2023/06/05 01:48:52;;;;;;;;;;;;;;;16.40;56.56;101160.19;5073174;28;1976;-73
2023/06/05 01:51:19;;;;;;;;;;;;;;;16.37;56.60;101157.94;5070377;28;1569;-73
2023/06/05 01:53:48;;;;;;;;;;;;;;;16.37;56.52;101163.38;5074077;28;1653;-74
2023/06/05 01:56:19;;;;;;;;;;;;;;;16.36;56.47;101167.19;5065730;28;1508;-74
2023/06/05 01:58:45;;;;;;;;;;;;;;;16.34;56.41;101170.13;5048428;28;1894;-74
2023/06/05 02:01:12;;;;;;;;;;;;;;;16.34;56.59;101172.84;5058867;28;3482;-74
2023/06/05 02:03:40;;;;;;;;;;;;;;;16.33;56.47;101171.22;5062403;28;3380;-74
2023/06/05 02:06:06;;;;;;;;;;;;;;;16.33;56.45;101170.38;5071947;28;1882;-74
2023/06/05 02:08:35;;;;;;;;;;;;;;;16.31;56.41;101164.38;5067493;28;2472;-73
2023/06/05 02:11:02;;;;;;;;;;;;;;;16.30;56.44;101171.69;5066085;28;3871;-74
2023/06/05 02:13:37;;;;;;;;;;;;;;;16.30;56.38;101170.88;5068989;28;3412;-73
2023/06/05 02:16:07;;;;;;;;;;;;;;;16.28;56.35;101171.09;5074826;28;3464;-74
2023/06/05 02:18:36;;;;;;;;;;;;;;;16.26;56.32;101170.50;5063828;28;2050;-74
2023/06/05 02:21:03;;;;;;;;;;;;;;;16.25;56.27;101170.78;5065098;28;1897;-74
2023/06/05 02:23:30;;;;;;;;;;;;;;;16.25;56.33;101170.78;5065747;28;1554;-74
2023/06/05 02:25:57;;;;;;;;;;;;;;;16.24;56.33;101171.84;5050598;28;1543;-74
2023/06/05 02:28:26;;;;;;;;;;;;;;;16.22;56.28;101165.81;5065048;28;2351;-74
2023/06/05 02:30:53;;;;;;;;;;;;;;;16.22;56.18;101172.06;5064634;28;1501;-74
2023/06/05 02:33:20;;;;;;;;;;;;;;;16.19;56.33;101172.56;5067370;28;1623;-74
2023/06/05 02:35:47;;;;;;;;;;;;;;;16.20;56.15;101176.09;5072020;28;1395;-74
2023/06/05 02:38:15;;;;;;;;;;;;;;;16.17;56.16;101174.69;5067001;28;1889;-74
2023/06/05 02:40:42;;;;;;;;;;;;;;;16.18;56.21;101179.06;5065854;28;1479;-74
2023/06/05 02:43:08;;;;;;;;;;;;;;;16.15;56.15;101168.69;5067975;28;1803;-74
2023/06/05 02:45:35;;;;;;;;;;;;;;;16.16;56.15;101172.22;5072364;28;1547;-74
2023/06/05 02:48:01;;;;;;;;;;;;;;;16.13;56.11;101168.91;5075561;28;1977;-74
2023/06/05 02:50:28;;;;;;;;;;;;;;;16.12;56.05;101170.00;5051728;28;1762;-74
2023/06/05 02:52:55;;;;;;;;;;;;;;;16.12;56.09;101167.28;5067300;28;1603;-74
2023/06/05 02:55:21;;;;;;;;;;;;;;;16.10;56.05;101165.88;5065417;28;1453;-74
2023/06/05 02:57:48;;;;;;;;;;;;;;;16.09;56.04;101162.31;5066880;28;1967;-73
2023/06/05 03:00:16;;;;;;;;;;;;;;;16.07;56.04;101160.91;5065468;28;1508;-74
2023/06/05 03:02:48;;;;;;;;;;;;;;;16.07;56.00;101160.91;5067152;28;1662;-74
2023/06/05 03:05:15;;;;;;;;;;;;;;;16.06;56.09;101165.53;5064677;28;1501;-75
2023/06/05 03:07:54;;;;;;;;;;;;;;;16.05;55.96;101171.19;5073020;28;1910;-74
2023/06/05 03:10:21;;;;;;;;;;;;;;;16.05;55.98;101173.91;5047622;28;1666;-75
2023/06/05 03:12:47;;;;;;;;;;;;;;;16.02;56.08;101172.50;5067744;28;1530;-74
2023/06/05 03:15:16;;;;;;;;;;;;;;;16.02;55.98;101167.06;5046719;28;1546;-73
2023/06/05 03:17:42;;;;;;;;;;;;;;;16.01;56.05;101168.13;5065836;28;1956;-74
2023/06/05 03:20:10;;;;;;;;;;;;;;;16.00;56.12;101180.06;5063017;28;1690;-73
2023/06/05 03:22:36;;;;;;;;;;;;;;;15.99;55.85;101170.25;5070529;28;1500;-73
2023/06/05 03:25:03;;;;;;;;;;;;;;;15.99;55.94;101172.16;5075485;28;1668;-73
2023/06/05 03:27:29;;;;;;;;;;;;;;;15.96;56.05;101173.44;5071551;28;2137;-74
2023/06/05 03:29:58;;;;;;;;;;;;;;;15.96;55.87;101170.75;5065113;28;1988;-74
2023/06/05 03:32:34;;;;;;;;;;;;;;;15.95;55.94;101169.09;5068139;28;1599;-73
2023/06/05 03:35:01;;;;;;;;;;;;;;;15.94;56.02;101177.47;5066721;28;1822;-74
2023/06/05 03:37:28;;;;;;;;;;;;;;;15.93;55.89;101179.38;5078815;28;2096;-74
2023/06/05 03:39:54;;;;;;;;;;;;;;;15.93;55.93;101178.56;5069062;28;2129;-75
2023/06/05 03:42:21;;;;;;;;;;;;;;;15.90;55.74;101175.22;5056075;28;1488;-74
2023/06/05 03:44:47;;;;;;;;;;;;;;;15.90;55.80;101168.97;5069849;28;1687;-75
2023/06/05 03:47:15;;;;;;;;;;;;;;;15.89;55.88;101173.59;5070771;28;1991;-75
2023/06/05 03:49:47;;;;;;;;;;;;;;;15.88;55.82;101180.09;5067446;28;1957;-74
2023/06/05 03:52:16;;;;;;;;;;;;;;;15.88;55.87;101176.53;5072202;28;1927;-74
2023/06/05 03:54:44;;;;;;;;;;;;;;;15.87;55.75;101177.63;5071667;28;1504;-74
2023/06/05 03:57:12;;;;;;;;;;;;;;;15.85;55.79;101175.16;5068930;28;1884;-74
2023/06/05 03:59:39;;;;;;;;;;;;;;;15.83;55.71;101179.16;5069955;28;1477;-75
2023/06/05 04:02:07;;;;;;;;;;;;;;;15.83;55.79;101182.72;5069268;28;1531;-75
2023/06/05 04:04:33;;;;;;;;;;;;;;;15.84;55.73;101186.25;5067801;28;1479;-75
2023/06/05 04:07:00;;;;;;;;;;;;;;;15.81;55.74;101179.41;5069894;28;1913;-75
2023/06/05 04:09:26;;;;;;;;;;;;;;;15.81;55.63;101175.84;5073085;28;2232;-75
2023/06/05 04:11:53;;;;;;;;;;;;;;;15.80;55.57;101177.75;5069834;28;1559;-74
2023/06/05 04:14:20;;;;;;;;;;;;;;;15.80;55.61;101185.09;5055682;28;1548;-74
2023/06/05 04:16:54;;;;;;;;;;;;;;;15.78;55.65;101177.16;5071701;28;1917;-75
2023/06/05 04:19:21;;;;;;;;;;;;;;;15.78;55.59;101185.31;5049244;28;1508;-75
2023/06/05 04:21:59;;;;;;;;;;;;;;;15.77;55.52;101185.56;5070498;28;1580;-74
2023/06/05 04:24:35;;;;;;;;;;;;;;;15.77;55.48;101189.09;5072827;28;1562;-74
2023/06/05 04:27:02;;;;;;;;;;;;;;;15.76;55.61;101182.00;5070015;28;2119;-74
2023/06/05 04:29:36;;;;;;;;;;;;;;;15.76;55.45;101182.00;5055499;28;1902;-74
2023/06/05 04:32:09;;;;;;;;;;;;;;;15.74;55.50;101177.91;5065799;28;3520;-75
2023/06/05 04:34:45;;;;;;;;;;;;;;;15.74;55.46;101180.59;5066630;28;3275;-73
2023/06/05 04:37:31;;;;;;;;;;;;;;;15.74;55.50;101180.59;5069971;28;2465;-73
2023/06/05 04:40:15;;;;;;;;;;;;;;;15.72;55.53;101183.53;5065947;28;3348;-73
2023/06/05 04:43:08;;;;;;;;;;;;;;;15.72;55.43;101180.84;5068777;28;2571;-72
2023/06/05 04:46:01;;;;;;;;;;;;;;;15.72;55.38;101178.13;5066313;28;2500;-74
2023/06/05 04:48:55;;;;;;;;;;;;;;;15.72;55.34;101185.44;5070666;28;1930;-74
2023/06/05 04:51:42;;;;;;;;;;;;;;;15.72;55.26;101177.28;5067758;28;1519;-73
2023/06/05 04:54:29;;;;;;;;;;;;;;;15.71;55.22;101178.38;5073714;28;1801;-75
2023/06/05 04:57:20;;;;;;;;;;;;;;;15.70;55.28;101176.69;5075203;28;2091;-73
2023/06/05 05:00:12;;;;;;;;;;;;;;;15.70;55.22;101182.13;5066945;28;2220;-73
2023/06/05 05:03:04;;;;;;;;;;;;;;;15.70;55.17;101182.13;5078003;28;1521;-75
2023/06/05 05:05:55;;;;;;;;;;;;;;;15.69;55.31;101185.91;5079485;28;1993;-75
2023/06/05 05:08:49;;;;;;;;;;;;;;;15.69;55.18;101180.50;5072466;28;1968;-73
2023/06/05 05:11:40;;;;;;;;;;;;;;;15.69;55.09;101183.22;5088565;28;1605;-75
2023/06/05 05:14:32;;;;;;;;;;;;;;;15.68;55.05;101182.38;5081138;28;1531;-74
2023/06/05 05:17:25;;;;;;;;;;;;;;;15.68;55.06;101182.38;5082315;28;1718;-73
2023/06/05 05:20:18;;;;;;;;;;;;;;;15.66;54.98;101179.84;5080636;28;1499;-73
2023/06/05 05:23:10;;;;;;;;;;;;;;;15.66;55.07;101170.91;5087590;28;1572;-74
2023/06/05 05:26:01;;;;;;;;;;;;;;;15.66;55.00;101185.28;5083475;28;2223;-74
2023/06/05 05:28:53;;;;;;;;;;;;;;;15.65;54.98;101183.66;5083275;28;1957;-74
2023/06/05 05:31:45;;;;;;;;;;;;;;;15.64;54.98;101190.13;5080121;28;1484;-75
2023/06/05 05:34:38;;;;;;;;;;;;;;;15.65;54.99;101182.84;5081008;28;1688;-75
2023/06/05 05:37:30;;;;;;;;;;;;;;;15.64;54.83;101190.13;5083541;28;1967;-74
2023/06/05 05:40:21;;;;;;;;;;;;;;;15.63;54.87;101177.63;5084216;28;1545;-75
2023/06/05 05:43:12;;;;;;;;;;;;;;;15.64;54.90;101178.44;5087921;28;1424;-75
2023/06/05 05:46:04;;;;;;;;;;;;;;;15.62;54.84;101175.16;5083397;28;1570;-74
2023/06/05 05:48:56;;;;;;;;;;;;;;;15.62;54.84;101173.28;5078411;28;4999;-74
2023/06/05 05:51:48;;;;;;;;;;;;;;;15.61;55.02;101171.59;5083993;28;1570;-74
2023/06/05 05:54:40;;;;;;;;;;;;;;;15.61;54.87;101179.75;5086941;28;2057;-73
2023/06/05 05:57:32;;;;;;;;;;;;;;;15.61;54.90;101181.63;5087423;28;1157;-73
2023/06/05 06:00:24;;;;;;;;;;;;;;;15.61;54.91;101187.06;5081411;28;1456;-75
2023/06/05 06:03:16;;;;;;;;;;;;;;;15.60;54.75;101177.28;5079245;28;2175;-74
2023/06/05 06:06:08;;;;;;;;;;;;;;;15.59;54.76;101176.47;5079767;28;1824;-75
2023/06/05 06:09:01;;;;;;;;;;;;;;;15.60;54.78;101174.56;5083340;28;1898;-75
2023/06/05 06:11:55;;;;;;;;;;;;;;;15.59;54.75;101179.19;5069858;28;2104;-73
2023/06/05 06:14:47;;;;;;;;;;;;;;;15.59;54.69;101172.94;5066646;28;1502;-75
2023/06/05 06:17:39;;;;;;;;;;;;;;;15.58;54.78;101169.34;5069075;28;1584;-74
2023/06/05 06:20:33;;;;;;;;;;;;;;;15.57;54.62;101178.56;5067019;28;3445;-75
2023/06/05 06:23:24;;;;;;;;;;;;;;;15.58;54.68;101176.69;5079546;28;5187;-75
2023/06/05 06:26:16;;;;;;;;;;;;;;;15.57;54.69;101170.44;5086591;28;2096;-73
2023/06/05 06:29:08;;;;;;;;;;;;;;;15.56;54.74;101174.22;5067594;28;1949;-75
2023/06/05 06:32:00;;;;;;;;;;;;;;;15.56;54.74;101176.09;5066562;28;1994;-76
2023/06/05 06:34:53;;;;;;;;;;;;;;;15.56;54.59;101179.66;5072835;28;1686;-74
2023/06/05 06:37:45;;;;;;;;;;;;;;;15.55;54.67;101177.97;5067801;28;2028;-74
2023/06/05 06:40:37;;;;;;;;;;;;;;;15.56;54.50;101176.09;5068884;28;4021;-75
2023/06/05 06:43:29;;;;;;;;;;;;;;;15.55;54.66;101172.56;5066793;28;2065;-73
2023/06/05 06:46:21;;;;;;;;;;;;;;;15.55;54.57;101172.56;5070449;28;2089;-74
2023/06/05 06:49:13;;;;;;;;;;;;;;;15.54;54.67;101175.53;5065914;28;1961;-75
2023/06/05 06:52:05;;;;;;;;;;;;;;;15.55;54.58;101172.56;5066658;28;1889;-73
2023/06/05 06:54:57;;;;;;;;;;;;;;;15.54;54.58;101168.19;5084906;28;1623;-74
2023/06/05 06:57:50;;;;;;;;;;;;;;;15.54;54.64;101173.63;5072631;28;2252;-75
2023/06/05 07:00:42;;;;;;;;;;;;;;;15.54;54.66;101170.09;5067686;28;2015;-75
2023/06/05 07:03:34;;;;;;;;;;;;;;;15.54;54.61;101179.06;5075310;28;1717;-74
2023/06/05 07:06:25;;;;;;;;;;;;;;;15.55;54.55;101174.44;5085836;28;1598;-74
2023/06/05 07:09:17;;;;;;;;;;;;;;;15.54;54.47;101165.47;5068113;28;2001;-74
2023/06/05 07:12:09;;;;;;;;;;;;;;;15.56;54.52;101166.06;5066607;28;4089;-74
2023/06/05 07:15:02;;;;;;;;;;;;;;;15.57;54.50;101175.03;5073329;28;3786;-74
2023/06/05 07:17:54;;;;;;;;;;;;;;;15.56;54.26;101171.50;5058561;28;3717;-75
2023/06/05 07:20:46;;;;;;;;;;;;;;;15.55;54.44;101169.84;5051820;28;2932;-74
2023/06/05 07:23:39;;;;;;;;;;;;;;;15.56;54.39;101182.38;5072290;28;1777;-75
2023/06/05 07:26:30;;;;;;;;;;;;;;;15.57;54.43;101177.75;5088066;28;1733;-75
2023/06/05 07:29:23;;;;;;;;;;;;;;;15.56;54.44;101170.66;5081923;28;2177;-73
2023/06/05 07:32:14;;;;;;;;;;;;;;;15.56;54.40;101173.38;5065689;28;1768;-73
2023/06/05 07:35:07;;;;;;;;;;;;;;;15.59;54.25;101175.63;5061850;28;1851;-75
2023/06/05 07:37:58;;;;;;;;;;;;;;;15.56;54.38;101171.50;5065830;28;1521;-74
2023/06/05 07:40:50;;;;;;;;;;;;;;;15.56;54.47;101166.06;5078745;28;1808;-75
2023/06/05 07:43:42;;;;;;;;;;;;;;;15.56;54.45;101165.22;5074083;28;1523;-75
2023/06/05 07:46:34;;;;;;;;;;;;;;;15.57;54.48;101164.19;5075214;28;1931;-75
2023/06/05 07:49:26;;;;;;;;;;;;;;;15.56;54.44;101166.06;5073077;28;2166;-75
2023/06/05 07:52:19;;;;;;;;;;;;;;;15.57;54.43;101169.63;5073187;28;1769;-75
2023/06/05 07:55:10;;;;;;;;;;;;;;;15.58;54.35;101166.66;5069985;28;1556;-74
2023/06/05 07:58:01;;;;;;;;;;;;;;;15.57;54.44;101159.56;5070190;28;1656;-76
2023/06/05 08:00:53;;;;;;;;;;;;;;;15.58;54.39;101168.53;5064326;28;1819;-75
2023/06/05 08:03:45;;;;;;;;;;;;;;;15.59;54.48;101156.63;5060013;28;1795;-75
2023/06/05 08:06:39;;;;;;;;;;;;;;;15.58;54.33;101163.09;5069956;28;1864;-74
2023/06/05 08:09:33;;;;;;;;;;;;;;;15.57;54.40;101159.56;5066621;28;1905;-76
2023/06/05 08:12:24;;;;;;;;;;;;;;;15.58;54.42;101161.22;5073378;28;1950;-75
2023/06/05 08:15:15;;;;;;;;;;;;;;;15.58;54.39;101153.06;5083069;28;1489;-74
2023/06/05 08:18:07;;;;;;;;;;;;;;;15.59;54.38;101159.34;5081300;28;1553;-73
2023/06/05 08:20:59;;;;;;;;;;;;;;;15.60;54.35;101161.00;5070570;28;1584;-74
2023/06/05 08:23:51;;;;;;;;;;;;;;;15.60;54.36;101161.81;5073180;28;1534;-73
2023/06/05 08:26:44;;;;;;;;;;;;;;;15.60;54.38;101161.00;5076885;28;1630;-74
2023/06/05 08:29:36;;;;;;;;;;;;;;;15.60;54.37;101159.09;5070809;28;2044;-74
2023/06/05 08:32:28;;;;;;;;;;;;;;;15.26;54.37;101101.06;5071922;28;1635;-75
2023/06/05 08:35:20;;;;;;;;;;;;;;;15.60;54.26;101147.41;5069648;28;1607;-73
2023/06/05 08:38:12;;;;;;;;;;;;;;;15.60;54.39;101144.69;5072971;28;1758;-73
2023/06/05 08:41:07;;;;;;;;;;;;;;;15.59;54.37;101141.16;5073726;28;1488;-75
2023/06/05 08:43:59;;;;;;;;;;;;;;;15.59;54.43;101138.44;5081814;28;1784;-74
2023/06/05 08:46:50;;;;;;;;;;;;;;;15.61;54.32;101147.16;5086953;28;1549;-76
2023/06/05 08:49:42;;;;;;;;;;;;;;;15.61;54.42;101149.88;5075579;28;1902;-75
2023/06/05 08:52:35;;;;;;;;;;;;;;;15.62;54.41;101131.72;5087341;28;4378;-74
2023/06/05 08:55:26;;;;;;;;;;;;;;;15.62;54.33;101143.41;5091218;28;1549;-74
2023/06/05 08:58:17;;;;;;;;;;;;;;;15.63;54.46;101142.31;5082643;28;4173;-75
2023/06/05 09:01:09;;;;;;;;;;;;;;;15.63;54.36;101141.50;5085187;28;1522;-73
2023/06/05 09:04:01;;;;;;;;;;;;;;;15.65;54.48;101144.81;5090222;28;1895;-73
2023/06/05 09:06:53;;;;;;;;;;;;;;;15.65;54.44;101144.81;5084587;28;1919;-74
2023/06/05 09:09:45;;;;;;;;;;;;;;;15.65;54.32;101140.22;5086989;28;3632;-74
2023/06/05 09:12:36;;;;;;;;;;;;;;;15.65;54.49;101142.09;5087189;28;1684;-74
2023/06/05 09:15:28;;;;;;;;;;;;;;;15.67;54.43;101139.94;5084435;28;1826;-73
2023/06/05 09:18:20;;;;;;;;;;;;;;;15.66;54.48;101136.41;5086425;28;1664;-74
2023/06/05 09:21:12;;;;;;;;;;;;;;;15.67;54.40;101137.25;5087305;28;1605;-73
2023/06/05 09:24:04;;;;;;;;;;;;;;;15.69;54.39;101134.31;5083059;28;1603;-75
2023/06/05 09:26:56;;;;;;;;;;;;;;;15.69;54.50;101131.63;5084877;28;1510;-74
2023/06/05 09:29:48;;;;;;;;;;;;;;;15.68;54.44;101133.50;5083843;28;1906;-74
2023/06/05 09:32:40;;;;;;;;;;;;;;;15.71;54.49;101134.94;5075872;28;1965;-74
2023/06/05 09:35:33;;;;;;;;;;;;;;;15.71;54.50;101132.22;5078817;28;1870;-74
2023/06/05 09:38:24;;;;;;;;;;;;;;;15.71;54.51;101124.88;5085835;28;1549;-74
2023/06/05 09:41:18;;;;;;;;;;;;;;;15.72;54.56;101129.25;5079551;28;1655;-75
2023/06/05 09:44:10;;;;;;;;;;;;;;;15.73;54.47;101127.34;5079303;28;1904;-74
2023/06/05 09:47:02;;;;;;;;;;;;;;;15.73;54.50;101124.63;5078233;28;1561;-76
2023/06/05 09:49:53;;;;;;;;;;;;;;;15.72;54.54;101121.09;5081260;28;1902;-74
2023/06/05 09:52:45;;;;;;;;;;;;;;;15.74;54.60;101121.69;5084887;28;1772;-73
2023/06/05 09:55:36;;;;;;;;;;;;;;;15.76;54.57;101116.81;5087621;28;1659;-75
2023/06/05 09:58:28;;;;;;;;;;;;;;;15.76;54.66;101116.81;5077003;28;1910;-74
2023/06/05 10:01:22;;;;;;;;;;;;;;;15.76;54.62;101116.81;5085454;28;1826;-75
2023/06/05 10:04:15;;;;;;;;;;;;;;;15.77;54.58;101115.78;5084115;28;1585;-74
2023/06/05 10:07:06;;;;;;;;;;;;;;;15.78;54.76;101116.59;5086402;28;1530;-75
2023/06/05 10:10:01;;;;;;;;;;;;;;;15.77;54.65;101107.63;5083685;28;1902;-73
2023/06/05 10:12:56;;;;;;;;;;;;;;;15.80;54.68;101100.88;5082658;28;1636;-74
2023/06/05 10:15:47;;;;;;;;;;;;;;;15.80;54.67;101106.31;5082365;28;1660;-72
2023/06/05 10:18:39;;;;;;;;;;;;;;;15.81;54.73;101103.34;5086746;28;1550;-75
2023/06/05 10:21:31;;;;;;;;;;;;;;;15.82;54.78;101101.47;5084264;28;1685;-75
2023/06/05 10:24:23;;;;;;;;;;;;;;;15.83;54.72;101103.13;5085143;28;1490;-74
2023/06/05 10:27:16;;;;;;;;;;;;;;;15.83;54.79;101100.41;5080532;28;1546;-74
2023/06/05 10:30:07;;;;;;;;;;;;;;;15.84;54.74;101092.00;5079782;28;1910;-73
2023/06/05 10:32:59;;;;;;;;;;;;;;;15.85;54.83;101092.81;5085941;28;1562;-73
2023/06/05 10:35:52;;;;;;;;;;;;;;;15.86;54.87;101095.31;5078516;28;1562;-74
2023/06/05 10:38:44;;;;;;;;;;;;;;;15.87;54.84;101090.69;5083384;28;1669;-75
2023/06/05 10:41:36;;;;;;;;;;;;;;;15.87;54.88;101083.38;5078266;28;1493;-74
2023/06/05 10:44:28;;;;;;;;;;;;;;;15.88;54.91;101084.19;5083295;28;1581;-73
2023/06/05 10:47:20;;;;;;;;;;;;;;;15.89;54.88;101086.69;5084239;28;1542;-76
2023/06/05 10:50:12;;;;;;;;;;;;;;;15.90;54.90;101080.16;5081941;28;1958;-76
2023/06/05 10:53:03;;;;;;;;;;;;;;;15.91;54.86;101081.00;5085170;28;1831;-74
2023/06/05 10:55:55;;;;;;;;;;;;;;;15.92;54.87;101090.00;5083687;28;1007;-73
2023/06/05 10:58:46;;;;;;;;;;;;;;;15.94;54.89;101085.13;5084787;28;1669;-74
2023/06/05 11:01:38;;;;;;;;;;;;;;;15.95;54.98;101081.34;5082878;28;1713;-75
2023/06/05 11:04:30;;;;;;;;;;;;;;;15.97;54.96;101079.19;5083903;28;1327;-74
2023/06/05 11:07:21;;;;;;;;;;;;;;;15.97;54.91;101071.91;5083243;28;1672;-73
2023/06/05 11:10:15;;;;;;;;;;;;;;;15.99;54.96;101072.47;5082128;28;1953;-74
2023/06/05 11:13:07;;;;;;;;;;;;;;;16.01;55.06;101072.22;5085756;28;1691;-74
2023/06/05 11:15:58;;;;;;;;;;;;;;;16.01;55.09;101075.75;5085286;28;1641;-74
2023/06/05 11:18:51;;;;;;;;;;;;;;;16.02;55.05;101069.25;5086945;28;1791;-74
2023/06/05 11:21:42;;;;;;;;;;;;;;;16.03;55.05;101080.94;5075880;28;4669;-73
2023/06/05 11:24:35;;;;;;;;;;;;;;;16.04;55.06;101064.41;5085740;28;4838;-74
2023/06/05 11:27:26;;;;;;;;;;;;;;;16.03;55.30;101059.19;5083599;28;5034;-74
2023/06/05 11:30:17;;;;;;;;;;;;;;;16.05;55.33;101063.34;5084170;28;1953;-75
2023/06/05 11:33:12;;;;;;;;;;;;;;;16.06;55.49;101064.16;5079846;28;1752;-73
2023/06/05 11:36:03;;;;;;;;;;;;;;;16.07;55.35;101068.53;5078207;28;1756;-74
2023/06/05 11:38:57;;;;;;;;;;;;;;;16.08;55.43;101068.28;5082834;28;1410;-75
2023/06/05 11:41:50;;;;;;;;;;;;;;;16.09;55.53;101061.78;5083054;28;1533;-77
2023/06/05 11:44:41;;;;;;;;;;;;;;;16.10;55.72;101059.91;5088599;28;1547;-73
2023/06/05 11:47:33;;;;;;;;;;;;;;;16.11;55.81;101058.81;5082366;28;1646;-75
2023/06/05 11:50:30;;;;;;;;;;;;;;;16.13;55.87;101056.69;5090036;28;1898;-73
2023/06/05 11:53:21;;;;;;;;;;;;;;;16.15;55.82;101061.88;5077671;28;1392;-74
2023/06/05 11:56:15;;;;;;;;;;;;;;;16.17;55.65;101060.56;5071593;28;1521;-73
2023/06/05 11:59:06;;;;;;;;;;;;;;;16.19;55.69;101063.03;5069280;28;1516;-74
2023/06/05 12:01:59;;;;;;;;;;;;;;;16.18;55.71;101051.34;5073884;28;1502;-74
2023/06/05 12:04:52;;;;;;;;;;;;;;;16.19;55.88;101055.72;5072968;28;1551;-74
2023/06/05 12:07:44;;;;;;;;;;;;;;;16.21;56.02;101052.75;5074888;28;1552;-75
2023/06/05 12:10:37;;;;;;;;;;;;;;;16.22;56.18;101046.25;5072211;28;1910;-75
2023/06/05 12:13:28;;;;;;;;;;;;;;;16.22;56.38;101049.78;5071007;28;1745;-73
2023/06/05 12:16:21;;;;;;;;;;;;;;;15.80;56.44;100976.78;5072621;28;1554;-74
2023/06/05 12:19:13;;;;;;;;;;;;;;;16.25;56.54;101045.75;5081989;28;1705;-75
2023/06/05 12:22:05;;;;;;;;;;;;;;;16.26;56.60;101040.06;5070942;28;1490;-73
2023/06/05 12:24:56;;;;;;;;;;;;;;;16.28;56.78;101040.66;5083724;28;1765;-74
2023/06/05 12:27:48;;;;;;;;;;;;;;;16.30;56.69;101040.41;5090930;28;1744;-73
2023/06/05 12:30:39;;;;;;;;;;;;;;;16.31;56.93;101033.91;5084290;28;1905;-74
2023/06/05 12:33:31;;;;;;;;;;;;;;;16.32;57.04;101041.81;5086927;28;1573;-75
2023/06/05 12:36:23;;;;;;;;;;;;;;;16.33;57.11;101035.31;5089303;28;1554;-73
2023/06/05 12:39:16;;;;;;;;;;;;;;;16.35;57.08;101026.88;5082949;28;1828;-75
2023/06/05 12:42:07;;;;;;;;;;;;;;;16.35;57.16;101025.03;5082168;28;1395;-74
2023/06/05 12:44:58;;;;;;;;;;;;;;;16.38;57.22;101029.13;5088108;28;1593;-73
2023/06/05 12:47:51;;;;;;;;;;;;;;;16.39;57.02;101027.25;5089745;28;1550;-75
2023/06/05 12:50:42;;;;;;;;;;;;;;;16.42;56.94;101026.75;5086713;28;1906;-75
2023/06/05 12:53:35;;;;;;;;;;;;;;;16.44;56.81;101030.03;5086136;28;1478;-73
2023/06/05 12:56:26;;;;;;;;;;;;;;;16.45;56.67;101018.09;5085318;28;1570;-73
2023/06/05 12:59:18;;;;;;;;;;;;;;;16.47;56.45;101016.78;5084273;28;1530;-74
2023/06/05 13:02:11;;;;;;;;;;;;;;;16.48;56.44;101010.25;5088114;28;1522;-74
2023/06/05 13:05:04;;;;;;;;;;;;;;;16.49;56.53;101021.97;5090872;28;1636;-74
2023/06/05 13:07:55;;;;;;;;;;;;;;;16.50;56.51;101024.44;5087537;28;1121;-73
2023/06/05 13:10:48;;;;;;;;;;;;;;;16.55;56.57;101015.53;5087701;28;1898;-75
2023/06/05 13:13:39;;;;;;;;;;;;;;;16.53;56.49;101015.78;5086661;28;1641;-73
2023/06/05 13:16:31;;;;;;;;;;;;;;;16.57;56.43;101008.78;5087658;28;970;-73
2023/06/05 13:19:23;;;;;;;;;;;;;;;16.58;56.52;101015.84;5082921;28;1458;-75
2023/06/05 13:22:16;;;;;;;;;;;;;;;16.62;56.40;101015.34;5085755;28;1573;-75
2023/06/05 13:25:07;;;;;;;;;;;;;;;16.63;56.36;101004.25;5079522;28;1586;-73
2023/06/05 13:28:00;;;;;;;;;;;;;;;16.63;56.36;101006.97;5086351;28;1356;-75
2023/06/05 13:30:53;;;;;;;;;;;;;;;16.64;56.47;101003.16;5090551;28;1906;-74
2023/06/05 13:33:44;;;;;;;;;;;;;;;16.67;56.53;101004.56;5086303;28;4066;-74
2023/06/05 13:36:36;;;;;;;;;;;;;;;16.67;56.51;100997.22;5090633;28;1545;-73
2023/06/05 13:39:28;;;;;;;;;;;;;;;16.68;56.60;100996.16;5084333;28;4240;-74
2023/06/05 13:42:20;;;;;;;;;;;;;;;16.70;56.86;100988.56;5080913;28;1475;-74
2023/06/05 13:45:11;;;;;;;;;;;;;;;16.72;56.87;100991.84;5078063;28;1628;-74
2023/06/05 13:48:03;;;;;;;;;;;;;;;16.74;56.74;100991.63;5072603;28;1487;-73
2023/06/05 13:50:56;;;;;;;;;;;;;;;16.79;56.70;100989.00;5076858;28;1969;-74
2023/06/05 13:53:47;;;;;;;;;;;;;;;16.79;56.73;100978.09;5085594;28;4879;-74
2023/06/05 13:56:39;;;;;;;;;;;;;;;16.79;56.65;100984.41;5088924;28;1404;-73
2023/06/05 13:59:31;;;;;;;;;;;;;;;16.81;56.63;100978.69;5080080;28;4269;-75
2023/06/05 14:02:23;;;;;;;;;;;;;;;16.81;56.97;100975.97;5084123;28;1735;-75
2023/06/05 14:05:15;;;;;;;;;;;;;;;16.85;57.21;100976.28;5089840;28;1842;-74
2023/06/05 14:08:08;;;;;;;;;;;;;;;16.87;57.26;100971.44;5082478;28;1535;-75
2023/06/05 14:10:59;;;;;;;;;;;;;;;16.88;57.03;100963.00;5088562;28;3262;-74